createdAt,value
2022-10-23T00:00:32.077Z,9.50
2022-10-23T00:03:04.049Z,9.10
2022-10-23T00:10:54.247Z,9.90
2022-10-23T00:13:21.989Z,9.27
2022-10-23T00:18:39.423Z,8.45
2022-10-23T00:21:19.678Z,8.95
2022-10-23T00:23:47.427Z,9.57
2022-10-23T00:37:05.343Z,8.80
2022-10-23T00:42:27.954Z,9.30
2022-10-23T00:55:47.598Z,8.32
2022-10-23T01:03:39.873Z,8.65
2022-10-23T01:15:31.092Z,8.35
2022-10-23T01:30:16.412Z,10.00
2022-10-23T01:38:47.958Z,8.82
2022-10-23T01:42:07.999Z,9.68
2022-10-23T01:44:41.500Z,9.57
2022-10-23T01:50:07.940Z,10.20
2022-10-23T01:58:04.993Z,9.77
2022-10-23T02:03:24.616Z,9.85
2022-10-23T02:05:52.961Z,10.15
2022-10-23T02:20:06.182Z,10.27
2022-10-23T02:25:39.809Z,11.40
2022-10-23T02:51:23.440Z,11.88
2022-10-23T02:54:04.007Z,13.57
2022-10-23T02:59:47.307Z,13.85
2022-10-23T03:05:19.448Z,12.07
2022-10-23T04:12:42.342Z,11.68
2022-10-23T04:15:12.590Z,14.30
2022-10-23T04:17:45.195Z,13.50
2022-10-23T04:20:13.061Z,15.40
2022-10-23T04:25:07.962Z,15.30
2022-10-23T04:27:35.711Z,14.38
2022-10-23T04:30:03.955Z,11.60
2022-10-23T04:32:31.729Z,13.70
2022-10-23T04:37:26.271Z,12.93
2022-10-23T04:39:53.341Z,13.00
2022-10-23T04:44:48.009Z,12.70
2022-10-23T04:47:15.386Z,13.30
2022-10-23T04:50:02.935Z,13.73
2022-10-23T04:52:57.045Z,14.43
2022-10-23T04:55:26.776Z,13.93
2022-10-23T04:58:15.628Z,15.65
2022-10-23T05:00:44.273Z,15.55
2022-10-23T05:03:14.752Z,13.77
2022-10-23T05:05:42.853Z,16.90
2022-10-23T05:08:31.849Z,13.50
2022-10-23T05:11:10.606Z,15.35
2022-10-23T05:13:43.123Z,14.48
2022-10-23T05:16:10.535Z,15.60
2022-10-23T05:18:47.844Z,15.10
2022-10-23T05:21:26.547Z,14.65
2022-10-23T05:23:54.957Z,15.18
2022-10-23T05:26:22.903Z,15.70
2022-10-23T05:28:52.766Z,15.27
2022-10-23T05:31:22.400Z,13.45
2022-10-23T05:33:51.719Z,12.57
2022-10-23T05:36:21.817Z,15.60
2022-10-23T05:38:54.681Z,15.40
2022-10-23T05:41:21.994Z,13.98
2022-10-23T05:46:34.372Z,14.88
2022-10-23T05:49:13.396Z,14.82
2022-10-23T05:52:15.854Z,12.50
2022-10-23T05:55:05.996Z,14.93
2022-10-23T05:57:59.337Z,13.60
2022-10-23T06:00:46.627Z,15.77
2022-10-23T06:03:33.688Z,14.30
2022-10-23T06:06:01.485Z,15.75
2022-10-23T06:08:39.924Z,13.50
2022-10-23T06:11:13.317Z,14.73
2022-10-23T06:13:44.548Z,15.60
2022-10-23T06:16:14.689Z,14.85
2022-10-23T06:18:43.171Z,15.10
2022-10-23T06:21:15.073Z,15.10
2022-10-23T06:23:44.999Z,15.55
2022-10-23T06:26:38.905Z,15.57
2022-10-23T06:29:19.569Z,14.60
2022-10-23T06:31:48.584Z,14.77
2022-10-23T06:34:16.075Z,16.45
2022-10-23T06:36:43.963Z,15.15
2022-10-23T06:39:32.028Z,15.07
2022-10-23T06:42:09.529Z,14.93
2022-10-23T06:45:07.449Z,14.57
2022-10-23T06:47:53.661Z,13.95
2022-10-23T06:50:39.400Z,15.90
2022-10-23T06:53:12.811Z,15.43
2022-10-23T06:55:49.018Z,14.55
2022-10-23T06:58:20.085Z,15.80
2022-10-23T07:01:08.462Z,15.63
2022-10-23T07:03:38.660Z,15.63
2022-10-23T07:06:10.289Z,15.63
2022-10-23T07:08:38.492Z,14.68
2022-10-23T07:11:18.840Z,14.02
2022-10-23T07:13:49.101Z,15.07
2022-10-23T07:16:22.806Z,14.88
2022-10-23T07:19:02.125Z,15.15
2022-10-23T07:21:32.026Z,14.98
2022-10-23T07:24:28.715Z,16.08
2022-10-23T07:26:58.428Z,16.23
2022-10-23T07:29:28.118Z,17.05
2022-10-23T07:34:48.316Z,15.65
2022-10-23T07:37:34.965Z,15.23
2022-10-23T07:40:06.316Z,15.18
2022-10-23T07:42:40.819Z,15.40
2022-10-23T07:45:08.939Z,15.13
2022-10-23T07:47:39.931Z,15.43
2022-10-23T07:50:09.074Z,17.00
2022-10-23T07:52:37.161Z,15.13
2022-10-23T07:55:12.341Z,16.30
2022-10-23T08:00:41.679Z,15.73
2022-10-23T08:03:16.727Z,15.50
2022-10-23T08:05:44.397Z,15.40
2022-10-23T08:08:11.863Z,16.25
2022-10-23T08:10:41.818Z,17.08
2022-10-23T08:13:14.793Z,17.67
2022-10-23T08:15:53.223Z,17.05
2022-10-23T08:18:49.972Z,17.17
2022-10-23T08:21:19.731Z,17.65
2022-10-23T08:23:48.380Z,16.45
2022-10-23T08:26:16.188Z,16.58
2022-10-23T08:28:43.348Z,16.27
2022-10-23T08:31:16.535Z,18.45
2022-10-23T08:33:57.200Z,16.98
2022-10-23T08:36:27.526Z,17.45
2022-10-23T08:38:57.642Z,18.88
2022-10-23T08:41:32.178Z,16.42
2022-10-23T08:44:38.892Z,18.77
2022-10-23T08:47:17.454Z,19.35
2022-10-23T08:50:12.899Z,17.67
2022-10-23T08:52:47.036Z,18.42
2022-10-23T08:55:17.001Z,15.77
2022-10-23T08:58:07.766Z,19.17
2022-10-23T09:00:35.167Z,16.42
2022-10-23T09:03:05.744Z,17.73
2022-10-23T09:05:56.221Z,17.58
2022-10-23T09:08:29.486Z,19.38
2022-10-23T09:11:05.385Z,16.90
2022-10-23T09:14:05.369Z,19.05
2022-10-23T09:16:50.378Z,18.15
2022-10-23T09:19:20.502Z,20.63
2022-10-23T09:21:52.574Z,17.52
2022-10-23T09:24:23.382Z,18.45
2022-10-23T09:26:53.657Z,18.13
2022-10-23T09:29:32.967Z,17.85
2022-10-23T09:32:04.391Z,17.67
2022-10-23T09:34:34.209Z,19.30
2022-10-23T09:37:21.507Z,17.65
2022-10-23T09:39:49.631Z,17.95
2022-10-23T09:42:25.229Z,17.98
2022-10-23T09:44:54.986Z,18.30
2022-10-23T09:47:25.675Z,16.92
2022-10-23T09:49:55.889Z,18.42
2022-10-23T09:52:39.168Z,18.00
2022-10-23T09:55:24.235Z,19.75
2022-10-23T09:57:53.666Z,19.38
2022-10-23T10:00:23.996Z,19.35
2022-10-23T10:03:18.049Z,17.83
2022-10-23T10:06:02.567Z,13.98
2022-10-23T10:08:45.397Z,17.65
2022-10-23T10:11:20.390Z,17.65
2022-10-23T10:14:15.740Z,18.52
2022-10-23T10:17:06.746Z,18.05
2022-10-23T10:20:01.330Z,17.23
2022-10-23T10:22:49.067Z,15.48
2022-10-23T10:25:18.959Z,18.48
2022-10-23T10:28:15.912Z,18.92
2022-10-23T10:31:04.671Z,18.02
2022-10-23T10:33:57.277Z,17.92
2022-10-23T10:36:49.701Z,17.13
2022-10-23T10:39:41.299Z,17.45
2022-10-23T10:42:47.424Z,19.25
2022-10-23T10:45:44.487Z,17.23
2022-10-23T10:48:18.190Z,21.30
2022-10-23T10:51:24.850Z,20.50
2022-10-23T10:54:30.794Z,20.30
2022-10-23T10:57:00.641Z,20.00
2022-10-23T10:59:35.848Z,19.10
2022-10-23T11:02:23.932Z,20.25
2022-10-23T11:07:25.766Z,20.45
2022-10-23T11:09:53.297Z,19.05
2022-10-23T11:12:24.110Z,19.83
2022-10-23T11:14:52.515Z,18.70
2022-10-23T11:17:26.885Z,18.20
2022-10-23T11:20:06.769Z,18.65
2022-10-23T11:22:36.644Z,19.25
2022-10-23T11:25:30.695Z,17.98
2022-10-23T11:28:11.354Z,21.77
2022-10-23T11:31:11.899Z,24.05
2022-10-23T11:33:51.681Z,20.13
2022-10-23T11:36:20.976Z,21.67
2022-10-23T11:38:51.232Z,21.13
2022-10-23T11:41:21.050Z,19.02
2022-10-23T11:44:03.620Z,18.02
2022-10-23T11:46:33.814Z,21.40
2022-10-23T11:49:05.194Z,20.30
2022-10-23T11:51:40.354Z,20.33
2022-10-23T11:54:24.992Z,21.10
2022-10-23T11:57:16.181Z,24.05
2022-10-23T11:59:49.631Z,22.50
2022-10-23T12:02:38.371Z,22.42
2022-10-23T12:05:30.103Z,21.10
2022-10-23T12:08:00.300Z,23.20
2022-10-23T12:10:31.369Z,25.10
2022-10-23T12:13:06.441Z,22.75
2022-10-23T12:15:35.113Z,22.60
2022-10-23T12:18:15.517Z,22.35
2022-10-23T12:20:50.630Z,21.98
2022-10-23T12:23:30.516Z,24.50
2022-10-23T12:26:25.644Z,22.92
2022-10-23T12:29:02.556Z,21.15
2022-10-23T12:32:05.071Z,22.95
2022-10-23T12:34:45.140Z,24.02
2022-10-23T12:37:31.311Z,22.30
2022-10-23T12:39:59.260Z,23.20
2022-10-23T12:42:29.084Z,24.65
2022-10-23T12:45:11.100Z,24.73
2022-10-23T12:47:39.966Z,24.60
2022-10-23T12:50:28.197Z,23.08
2022-10-23T12:55:46.876Z,24.77
2022-10-23T12:58:32.167Z,24.33
2022-10-23T13:01:05.653Z,23.85
2022-10-23T13:03:34.654Z,20.92
2022-10-23T13:06:03.590Z,24.42
2022-10-23T13:08:44.990Z,23.85
2022-10-23T13:11:41.054Z,25.15
2022-10-23T13:14:28.103Z,25.85
2022-10-23T13:17:07.174Z,25.67
2022-10-23T13:19:39.583Z,22.27
2022-10-23T13:22:22.787Z,24.75
2022-10-23T13:24:50.107Z,23.45
2022-10-23T13:27:33.637Z,23.45
2022-10-23T13:30:01.183Z,23.70
2022-10-23T13:32:30.609Z,22.60
2022-10-23T13:35:20.921Z,24.38
2022-10-23T13:37:49.314Z,23.55
2022-10-23T13:40:23.948Z,22.95
2022-10-23T13:42:53.968Z,22.95
2022-10-23T13:45:26.929Z,26.27
2022-10-23T13:47:54.115Z,22.75
2022-10-23T13:50:21.701Z,25.88
2022-10-23T13:52:48.752Z,25.42
2022-10-23T13:57:48.815Z,23.13
2022-10-23T14:00:16.714Z,24.42
2022-10-23T14:02:44.185Z,24.98
2022-10-23T14:05:12.450Z,24.75
2022-10-23T14:07:39.905Z,26.10
2022-10-23T14:10:07.294Z,24.63
2022-10-23T14:12:44.602Z,24.38
2022-10-23T14:15:13.790Z,23.80
2022-10-23T14:17:40.867Z,26.75
2022-10-23T14:22:36.034Z,26.30
2022-10-23T14:25:03.292Z,24.75
2022-10-23T14:27:30.967Z,21.58
2022-10-23T14:29:59.656Z,24.65
2022-10-23T14:32:27.146Z,24.70
2022-10-23T14:34:54.819Z,21.67
2022-10-23T14:37:25.929Z,24.35
2022-10-23T14:39:53.420Z,23.83
2022-10-23T14:42:20.364Z,27.20
2022-10-23T14:44:49.780Z,25.88
2022-10-23T14:47:19.530Z,23.23
2022-10-23T14:49:50.812Z,23.42
2022-10-23T14:52:18.125Z,24.73
2022-10-23T14:54:45.336Z,21.90
2022-10-23T14:57:16.305Z,23.05
2022-10-23T14:59:43.523Z,27.85
2022-10-23T15:02:12.116Z,23.55
2022-10-23T15:04:39.757Z,23.85
2022-10-23T15:07:06.788Z,26.33
2022-10-23T15:09:38.433Z,22.45
2022-10-23T15:12:06.095Z,23.63
2022-10-23T17:20:31.773Z,21.90
2022-10-23T17:23:01.441Z,22.88
2022-10-23T17:28:11.590Z,24.42
2022-10-23T17:30:40.437Z,24.83
2022-10-23T17:33:08.691Z,23.10
2022-10-23T17:35:36.165Z,27.05
2022-10-23T17:38:07.734Z,25.88
2022-10-23T17:40:35.024Z,23.88
2022-10-23T17:45:46.521Z,23.50
2022-10-23T17:51:09.351Z,23.38
2022-10-23T17:54:00.323Z,23.52
2022-10-23T17:59:18.699Z,26.92
2022-10-23T18:01:48.788Z,21.30
2022-10-23T18:04:19.053Z,23.63
2022-10-23T18:09:32.752Z,18.52
2022-10-23T18:12:00.010Z,23.75
2022-10-23T18:14:29.667Z,23.77
2022-10-23T18:17:02.027Z,22.73
2022-10-23T18:25:01.782Z,22.65
2022-10-23T18:27:30.576Z,23.02
2022-10-23T18:29:58.349Z,22.52
2022-10-23T18:35:08.384Z,20.33
2022-10-23T18:37:41.247Z,21.70
2022-10-23T18:40:09.442Z,21.33
2022-10-23T18:42:36.850Z,21.55
2022-10-23T18:47:46.108Z,21.60
2022-10-23T18:50:13.698Z,21.92
2022-10-23T18:52:42.960Z,21.45
2022-10-23T18:55:11.826Z,19.48
2022-10-23T19:00:20.547Z,18.70
2022-10-23T19:02:52.177Z,18.35
2022-10-23T19:05:20.077Z,18.60
2022-10-23T19:07:50.261Z,18.23
2022-10-23T19:10:20.747Z,17.05
2022-10-23T19:12:48.625Z,15.43
2022-10-23T19:15:16.937Z,16.40
2022-10-23T19:17:44.220Z,11.60
2022-10-23T19:20:18.158Z,16.83
2022-10-23T19:22:49.362Z,17.15
2022-10-23T19:25:25.928Z,16.33
2022-10-23T19:27:55.689Z,20.75
2022-10-23T19:30:23.327Z,16.00
2022-10-23T19:32:51.084Z,14.85
2022-10-23T19:35:20.062Z,17.98
2022-10-23T19:37:47.761Z,19.00
2022-10-23T19:40:15.996Z,20.67
2022-10-23T19:45:25.610Z,15.82
2022-10-23T19:47:54.571Z,16.60
2022-10-23T19:50:21.842Z,19.40
2022-10-23T19:52:51.234Z,20.50
2022-10-23T19:55:18.941Z,14.40
2022-10-23T19:57:46.496Z,11.90
2022-10-23T20:00:15.100Z,20.85
2022-10-23T20:02:44.442Z,13.35
2022-10-23T20:05:12.518Z,29.42
2022-10-23T20:07:39.986Z,27.00
2022-10-23T20:10:08.713Z,21.58
2022-10-23T20:12:36.378Z,12.57
2022-10-23T20:17:49.262Z,13.57
2022-10-23T20:20:16.379Z,14.20
2022-10-23T20:22:45.845Z,16.40
2022-10-23T20:25:15.488Z,12.38
2022-10-23T20:27:43.202Z,15.27
2022-10-23T20:32:51.859Z,14.68
2022-10-23T20:35:18.896Z,12.68
2022-10-23T20:40:13.721Z,12.35
2022-10-23T20:45:09.592Z,9.50
2022-10-23T20:47:36.778Z,11.05
2022-10-23T20:50:04.102Z,12.65
2022-10-23T20:57:42.540Z,11.82
2022-10-23T21:00:11.909Z,9.43
2022-10-23T21:02:39.031Z,11.13
2022-10-23T21:05:07.239Z,10.23
2022-10-23T21:07:35.377Z,11.45
2022-10-23T21:10:05.211Z,10.63
2022-10-23T21:12:32.508Z,10.70
2022-10-23T21:14:59.631Z,10.82
2022-10-23T21:17:26.719Z,10.35
2022-10-23T21:19:53.793Z,9.80
2022-10-23T21:22:21.063Z,8.43
2022-10-23T21:24:48.629Z,11.93
2022-10-23T21:27:15.672Z,11.45
2022-10-23T21:29:43.437Z,10.73
2022-10-23T21:32:13.032Z,11.82
2022-10-23T21:34:40.202Z,9.85
2022-10-23T21:37:14.985Z,9.70
2022-10-23T21:39:43.126Z,11.75
2022-10-23T21:42:12.305Z,11.57
2022-10-23T21:44:39.741Z,12.32
2022-10-23T21:47:07.461Z,11.55
2022-10-23T21:49:35.217Z,10.18
2022-10-23T21:52:02.384Z,12.23
2022-10-23T21:54:29.489Z,12.38
2022-10-23T21:56:56.466Z,10.93
2022-10-23T21:59:29.969Z,9.57
2022-10-23T22:01:59.477Z,13.75
2022-10-23T22:04:26.637Z,13.50
2022-10-23T22:09:21.824Z,9.02
2022-10-23T22:11:50.818Z,13.00
2022-10-23T22:14:18.507Z,12.90
2022-10-23T22:16:46.350Z,13.50
2022-10-23T22:19:16.114Z,14.85
2022-10-23T22:21:43.470Z,14.70
2022-10-23T22:24:11.370Z,14.88
2022-10-23T22:26:44.539Z,10.68
2022-10-23T22:29:14.593Z,13.50
2022-10-23T22:31:45.511Z,12.95
2022-10-23T22:37:11.707Z,13.45
2022-10-23T22:39:39.289Z,10.63
2022-10-23T22:42:06.610Z,15.25
2022-10-23T22:44:34.103Z,15.93
2022-10-23T22:47:01.172Z,13.90
2022-10-23T22:49:28.702Z,7.95
2022-10-23T22:51:55.692Z,13.20
2022-10-23T22:54:22.954Z,11.65
2022-10-23T22:59:17.105Z,12.50
2022-10-23T23:04:38.170Z,13.23
2022-10-23T23:07:07.527Z,13.82
2022-10-23T23:09:40.744Z,13.15
2022-10-23T23:12:09.696Z,13.00
2022-10-23T23:14:37.006Z,11.15
2022-10-23T23:17:04.901Z,13.48
2022-10-23T23:19:32.136Z,12.77
2022-10-23T23:22:00.545Z,8.55
2022-10-23T23:24:28.004Z,13.25
2022-10-23T23:26:55.164Z,11.52
2022-10-23T23:29:22.314Z,10.55
2022-10-23T23:31:49.542Z,12.15
2022-10-23T23:34:16.759Z,11.23
2022-10-23T23:36:43.847Z,11.82
2022-10-23T23:39:11.195Z,9.90
2022-10-23T23:41:38.734Z,7.90
2022-10-23T23:44:06.272Z,12.25
2022-10-23T23:46:33.239Z,12.18
2022-10-23T23:51:27.320Z,10.90
2022-10-23T23:56:21.999Z,8.65
2022-10-23T23:58:49.138Z,9.48
